sensor_id;sensor_type;location;lat;lon;timestamp;P1;durP1;ratioP1;P2;durP2;ratioP2
50585;SDS011;36542;51.700;8.846;2022-11-20T00:00:50;20.47;;;11.63;;
50585;SDS011;36542;51.700;8.846;2022-11-20T00:03:15;20.00;;;12.00;;
50585;SDS011;36542;51.700;8.846;2022-11-20T00:05:42;20.30;;;12.00;;
50585;SDS011;36542;51.700;8.846;2022-11-20T00:08:07;20.70;;;11.63;;
50585;SDS011;36542;51.700;8.846;2022-11-20T00:10:35;20.77;;;11.93;;
50585;SDS011;36542;51.700;8.846;2022-11-20T00:13:01;17.90;;;11.23;;
50585;SDS011;36542;51.700;8.846;2022-11-20T00:15:27;19.10;;;11.90;;
50585;SDS011;36542;51.700;8.846;2022-11-20T00:17:53;16.70;;;10.50;;
50585;SDS011;36542;51.700;8.846;2022-11-20T00:20:18;19.70;;;10.80;;
50585;SDS011;36542;51.700;8.846;2022-11-20T00:22:44;22.57;;;13.00;;
50585;SDS011;36542;51.700;8.846;2022-11-20T00:25:09;21.27;;;11.83;;
50585;SDS011;36542;51.700;8.846;2022-11-20T00:27:35;17.23;;;10.43;;
50585;SDS011;36542;51.700;8.846;2022-11-20T00:30:00;19.57;;;12.03;;
50585;SDS011;36542;51.700;8.846;2022-11-20T00:32:26;21.13;;;12.40;;
50585;SDS011;36542;51.700;8.846;2022-11-20T00:34:51;17.50;;;11.70;;
50585;SDS011;36542;51.700;8.846;2022-11-20T00:37:17;20.70;;;12.53;;
50585;SDS011;36542;51.700;8.846;2022-11-20T00:39:42;21.37;;;12.13;;
50585;SDS011;36542;51.700;8.846;2022-11-20T00:42:08;19.87;;;12.27;;
50585;SDS011;36542;51.700;8.846;2022-11-20T00:44:33;18.57;;;11.60;;
50585;SDS011;36542;51.700;8.846;2022-11-20T00:46:59;19.00;;;11.83;;
50585;SDS011;36542;51.700;8.846;2022-11-20T00:49:24;20.30;;;11.80;;
50585;SDS011;36542;51.700;8.846;2022-11-20T00:51:50;17.30;;;11.23;;
50585;SDS011;36542;51.700;8.846;2022-11-20T00:54:15;22.67;;;11.80;;
50585;SDS011;36542;51.700;8.846;2022-11-20T00:56:41;19.53;;;12.10;;
50585;SDS011;36542;51.700;8.846;2022-11-20T00:59:08;18.87;;;10.93;;
50585;SDS011;36542;51.700;8.846;2022-11-20T01:01:34;19.70;;;11.20;;
50585;SDS011;36542;51.700;8.846;2022-11-20T01:04:01;17.93;;;10.60;;
50585;SDS011;36542;51.700;8.846;2022-11-20T01:06:31;19.37;;;11.83;;
50585;SDS011;36542;51.700;8.846;2022-11-20T01:08:59;19.10;;;11.37;;
50585;SDS011;36542;51.700;8.846;2022-11-20T01:11:28;18.27;;;10.97;;
50585;SDS011;36542;51.700;8.846;2022-11-20T01:13:56;17.53;;;9.90;;
50585;SDS011;36542;51.700;8.846;2022-11-20T01:18:53;19.53;;;11.57;;
50585;SDS011;36542;51.700;8.846;2022-11-20T01:21:22;20.93;;;10.13;;
50585;SDS011;36542;51.700;8.846;2022-11-20T01:23:50;18.43;;;11.57;;
50585;SDS011;36542;51.700;8.846;2022-11-20T01:26:17;19.60;;;11.53;;
50585;SDS011;36542;51.700;8.846;2022-11-20T01:28:44;21.73;;;11.17;;
50585;SDS011;36542;51.700;8.846;2022-11-20T01:31:14;16.33;;;10.53;;
50585;SDS011;36542;51.700;8.846;2022-11-20T01:33:41;19.60;;;11.90;;
50585;SDS011;36542;51.700;8.846;2022-11-20T01:36:08;20.23;;;10.87;;
50585;SDS011;36542;51.700;8.846;2022-11-20T01:38:34;18.37;;;10.87;;
50585;SDS011;36542;51.700;8.846;2022-11-20T01:41:00;16.10;;;9.63;;
50585;SDS011;36542;51.700;8.846;2022-11-20T01:43:26;17.17;;;9.97;;
50585;SDS011;36542;51.700;8.846;2022-11-20T01:46:08;21.53;;;11.07;;
50585;SDS011;36542;51.700;8.846;2022-11-20T01:48:43;19.17;;;10.60;;
50585;SDS011;36542;51.700;8.846;2022-11-20T01:51:17;17.20;;;10.17;;
50585;SDS011;36542;51.700;8.846;2022-11-20T01:53:47;17.60;;;10.30;;
50585;SDS011;36542;51.700;8.846;2022-11-20T01:56:14;18.17;;;10.90;;
50585;SDS011;36542;51.700;8.846;2022-11-20T01:58:42;17.20;;;9.77;;
50585;SDS011;36542;51.700;8.846;2022-11-20T02:01:13;19.20;;;10.40;;
50585;SDS011;36542;51.700;8.846;2022-11-20T02:03:39;17.13;;;9.87;;
50585;SDS011;36542;51.700;8.846;2022-11-20T02:08:52;13.40;;;8.87;;
50585;SDS011;36542;51.700;8.846;2022-11-20T02:11:19;16.93;;;9.83;;
50585;SDS011;36542;51.700;8.846;2022-11-20T02:13:44;17.60;;;9.73;;
50585;SDS011;36542;51.700;8.846;2022-11-20T02:16:15;17.63;;;10.20;;
50585;SDS011;36542;51.700;8.846;2022-11-20T02:18:49;18.40;;;10.80;;
50585;SDS011;36542;51.700;8.846;2022-11-20T02:21:27;16.87;;;9.93;;
50585;SDS011;36542;51.700;8.846;2022-11-20T02:24:15;18.27;;;10.20;;
50585;SDS011;36542;51.700;8.846;2022-11-20T02:26:45;19.30;;;10.07;;
50585;SDS011;36542;51.700;8.846;2022-11-20T02:29:16;17.37;;;9.97;;
50585;SDS011;36542;51.700;8.846;2022-11-20T02:31:55;16.33;;;10.00;;
50585;SDS011;36542;51.700;8.846;2022-11-20T02:34:22;18.50;;;11.53;;
50585;SDS011;36542;51.700;8.846;2022-11-20T02:36:48;20.47;;;11.50;;
50585;SDS011;36542;51.700;8.846;2022-11-20T02:39:16;20.73;;;11.03;;
50585;SDS011;36542;51.700;8.846;2022-11-20T02:41:42;20.90;;;11.73;;
50585;SDS011;36542;51.700;8.846;2022-11-20T02:44:07;19.53;;;12.43;;
50585;SDS011;36542;51.700;8.846;2022-11-20T02:46:33;21.43;;;12.30;;
50585;SDS011;36542;51.700;8.846;2022-11-20T02:49:00;19.23;;;10.57;;
50585;SDS011;36542;51.700;8.846;2022-11-20T02:51:26;19.67;;;11.13;;
50585;SDS011;36542;51.700;8.846;2022-11-20T02:53:52;18.60;;;10.70;;
50585;SDS011;36542;51.700;8.846;2022-11-20T02:56:17;16.73;;;10.33;;
50585;SDS011;36542;51.700;8.846;2022-11-20T02:58:43;19.63;;;10.97;;
50585;SDS011;36542;51.700;8.846;2022-11-20T03:01:08;15.87;;;9.80;;
50585;SDS011;36542;51.700;8.846;2022-11-20T03:03:34;19.10;;;10.57;;
50585;SDS011;36542;51.700;8.846;2022-11-20T03:05:59;20.30;;;11.23;;
50585;SDS011;36542;51.700;8.846;2022-11-20T03:08:25;17.40;;;10.30;;
50585;SDS011;36542;51.700;8.846;2022-11-20T03:10:51;16.40;;;9.73;;
50585;SDS011;36542;51.700;8.846;2022-11-20T03:13:16;17.03;;;9.97;;
50585;SDS011;36542;51.700;8.846;2022-11-20T03:15:42;15.53;;;8.93;;
50585;SDS011;36542;51.700;8.846;2022-11-20T03:18:07;19.03;;;11.37;;
50585;SDS011;36542;51.700;8.846;2022-11-20T03:20:33;17.97;;;10.70;;
50585;SDS011;36542;51.700;8.846;2022-11-20T03:22:59;20.10;;;11.67;;
50585;SDS011;36542;51.700;8.846;2022-11-20T03:25:25;16.43;;;9.33;;
50585;SDS011;36542;51.700;8.846;2022-11-20T03:27:51;17.60;;;9.47;;
50585;SDS011;36542;51.700;8.846;2022-11-20T03:30:16;16.97;;;9.20;;
50585;SDS011;36542;51.700;8.846;2022-11-20T03:32:42;16.03;;;9.63;;
50585;SDS011;36542;51.700;8.846;2022-11-20T03:35:08;19.40;;;11.57;;
50585;SDS011;36542;51.700;8.846;2022-11-20T03:37:34;19.70;;;11.20;;
50585;SDS011;36542;51.700;8.846;2022-11-20T03:40:00;16.30;;;10.13;;
50585;SDS011;36542;51.700;8.846;2022-11-20T03:42:25;21.40;;;11.17;;
50585;SDS011;36542;51.700;8.846;2022-11-20T03:45:09;16.43;;;9.70;;
50585;SDS011;36542;51.700;8.846;2022-11-20T03:47:35;16.90;;;9.80;;
50585;SDS011;36542;51.700;8.846;2022-11-20T03:50:00;16.17;;;9.77;;
50585;SDS011;36542;51.700;8.846;2022-11-20T03:52:26;16.33;;;9.87;;
50585;SDS011;36542;51.700;8.846;2022-11-20T03:54:52;17.73;;;10.17;;
50585;SDS011;36542;51.700;8.846;2022-11-20T03:57:17;19.63;;;10.53;;
50585;SDS011;36542;51.700;8.846;2022-11-20T03:59:43;17.97;;;10.47;;
50585;SDS011;36542;51.700;8.846;2022-11-20T04:02:08;17.67;;;10.97;;
50585;SDS011;36542;51.700;8.846;2022-11-20T04:04:34;20.53;;;11.67;;
50585;SDS011;36542;51.700;8.846;2022-11-20T04:06:59;19.67;;;10.53;;
50585;SDS011;36542;51.700;8.846;2022-11-20T04:09:25;18.80;;;11.27;;
50585;SDS011;36542;51.700;8.846;2022-11-20T04:11:50;16.57;;;10.50;;
50585;SDS011;36542;51.700;8.846;2022-11-20T04:14:16;22.57;;;11.07;;
50585;SDS011;36542;51.700;8.846;2022-11-20T04:16:42;20.30;;;12.00;;
50585;SDS011;36542;51.700;8.846;2022-11-20T04:19:09;18.93;;;12.07;;
50585;SDS011;36542;51.700;8.846;2022-11-20T04:21:36;20.83;;;10.40;;
50585;SDS011;36542;51.700;8.846;2022-11-20T04:24:02;19.67;;;11.13;;
50585;SDS011;36542;51.700;8.846;2022-11-20T04:26:28;18.17;;;10.90;;
50585;SDS011;36542;51.700;8.846;2022-11-20T04:28:55;20.37;;;10.73;;
50585;SDS011;36542;51.700;8.846;2022-11-20T04:31:25;18.27;;;11.13;;
50585;SDS011;36542;51.700;8.846;2022-11-20T04:33:52;20.67;;;10.20;;
50585;SDS011;36542;51.700;8.846;2022-11-20T04:36:22;21.70;;;11.43;;
50585;SDS011;36542;51.700;8.846;2022-11-20T04:38:52;19.10;;;9.60;;
50585;SDS011;36542;51.700;8.846;2022-11-20T04:41:19;16.53;;;9.53;;
50585;SDS011;36542;51.700;8.846;2022-11-20T04:43:46;20.70;;;10.83;;
50585;SDS011;36542;51.700;8.846;2022-11-20T04:46:13;18.13;;;10.53;;
50585;SDS011;36542;51.700;8.846;2022-11-20T04:48:39;18.03;;;10.37;;
50585;SDS011;36542;51.700;8.846;2022-11-20T04:51:04;23.80;;;12.77;;
50585;SDS011;36542;51.700;8.846;2022-11-20T04:53:30;18.87;;;11.00;;
50585;SDS011;36542;51.700;8.846;2022-11-20T04:56:03;20.27;;;10.13;;
50585;SDS011;36542;51.700;8.846;2022-11-20T04:58:33;18.53;;;9.97;;
50585;SDS011;36542;51.700;8.846;2022-11-20T05:03:29;20.90;;;10.90;;
50585;SDS011;36542;51.700;8.846;2022-11-20T05:05:55;20.20;;;11.10;;
50585;SDS011;36542;51.700;8.846;2022-11-20T05:08:20;19.13;;;11.77;;
50585;SDS011;36542;51.700;8.846;2022-11-20T05:10:46;21.70;;;11.90;;
50585;SDS011;36542;51.700;8.846;2022-11-20T05:13:11;21.03;;;11.63;;
50585;SDS011;36542;51.700;8.846;2022-11-20T05:15:37;23.87;;;12.17;;
50585;SDS011;36542;51.700;8.846;2022-11-20T05:18:02;20.47;;;12.40;;
50585;SDS011;36542;51.700;8.846;2022-11-20T05:20:28;19.40;;;12.30;;
50585;SDS011;36542;51.700;8.846;2022-11-20T05:22:56;21.33;;;12.13;;
50585;SDS011;36542;51.700;8.846;2022-11-20T05:25:22;21.57;;;11.73;;
50585;SDS011;36542;51.700;8.846;2022-11-20T05:27:48;20.80;;;10.90;;
50585;SDS011;36542;51.700;8.846;2022-11-20T05:30:13;19.80;;;11.50;;
50585;SDS011;36542;51.700;8.846;2022-11-20T05:32:39;17.47;;;11.00;;
50585;SDS011;36542;51.700;8.846;2022-11-20T05:35:05;20.63;;;9.83;;
50585;SDS011;36542;51.700;8.846;2022-11-20T05:37:30;21.83;;;10.97;;
50585;SDS011;36542;51.700;8.846;2022-11-20T05:39:56;20.90;;;10.50;;
50585;SDS011;36542;51.700;8.846;2022-11-20T05:42:22;18.43;;;10.17;;
50585;SDS011;36542;51.700;8.846;2022-11-20T05:45:00;17.47;;;10.50;;
50585;SDS011;36542;51.700;8.846;2022-11-20T05:47:27;18.07;;;9.83;;
50585;SDS011;36542;51.700;8.846;2022-11-20T05:49:55;17.90;;;10.70;;
50585;SDS011;36542;51.700;8.846;2022-11-20T05:52:21;15.77;;;9.90;;
50585;SDS011;36542;51.700;8.846;2022-11-20T05:54:46;18.50;;;9.80;;
50585;SDS011;36542;51.700;8.846;2022-11-20T05:57:12;17.47;;;10.13;;
50585;SDS011;36542;51.700;8.846;2022-11-20T05:59:37;18.13;;;10.27;;
50585;SDS011;36542;51.700;8.846;2022-11-20T06:02:03;19.07;;;10.93;;
50585;SDS011;36542;51.700;8.846;2022-11-20T06:04:28;19.50;;;10.97;;
50585;SDS011;36542;51.700;8.846;2022-11-20T06:06:54;16.47;;;10.87;;
50585;SDS011;36542;51.700;8.846;2022-11-20T06:09:20;20.40;;;10.63;;
50585;SDS011;36542;51.700;8.846;2022-11-20T06:11:45;19.70;;;11.67;;
50585;SDS011;36542;51.700;8.846;2022-11-20T06:14:10;17.90;;;9.87;;
50585;SDS011;36542;51.700;8.846;2022-11-20T06:16:36;17.97;;;11.00;;
50585;SDS011;36542;51.700;8.846;2022-11-20T06:19:02;18.57;;;11.47;;
50585;SDS011;36542;51.700;8.846;2022-11-20T06:21:27;23.50;;;13.83;;
50585;SDS011;36542;51.700;8.846;2022-11-20T06:23:53;22.33;;;12.97;;
50585;SDS011;36542;51.700;8.846;2022-11-20T06:26:20;20.77;;;12.20;;
50585;SDS011;36542;51.700;8.846;2022-11-20T06:28:47;21.63;;;12.97;;
50585;SDS011;36542;51.700;8.846;2022-11-20T06:31:13;21.07;;;12.70;;
50585;SDS011;36542;51.700;8.846;2022-11-20T06:33:40;21.47;;;12.33;;
50585;SDS011;36542;51.700;8.846;2022-11-20T06:36:07;24.73;;;13.40;;
50585;SDS011;36542;51.700;8.846;2022-11-20T06:38:34;22.07;;;12.87;;
50585;SDS011;36542;51.700;8.846;2022-11-20T06:40:59;26.77;;;14.70;;
50585;SDS011;36542;51.700;8.846;2022-11-20T06:43:26;24.10;;;13.23;;
50585;SDS011;36542;51.700;8.846;2022-11-20T06:45:53;22.60;;;12.83;;
50585;SDS011;36542;51.700;8.846;2022-11-20T06:48:20;23.53;;;13.97;;
50585;SDS011;36542;51.700;8.846;2022-11-20T06:50:47;24.33;;;13.07;;
50585;SDS011;36542;51.700;8.846;2022-11-20T06:53:13;18.97;;;12.10;;
50585;SDS011;36542;51.700;8.846;2022-11-20T06:55:41;21.93;;;11.50;;
50585;SDS011;36542;51.700;8.846;2022-11-20T06:58:08;18.23;;;11.57;;
50585;SDS011;36542;51.700;8.846;2022-11-20T07:00:34;20.53;;;11.70;;
50585;SDS011;36542;51.700;8.846;2022-11-20T07:03:02;19.70;;;10.87;;
50585;SDS011;36542;51.700;8.846;2022-11-20T07:05:32;19.93;;;11.30;;
50585;SDS011;36542;51.700;8.846;2022-11-20T07:07:58;21.17;;;12.50;;
50585;SDS011;36542;51.700;8.846;2022-11-20T07:10:24;21.80;;;13.03;;
50585;SDS011;36542;51.700;8.846;2022-11-20T07:12:51;19.60;;;12.33;;
50585;SDS011;36542;51.700;8.846;2022-11-20T07:15:17;19.40;;;12.23;;
50585;SDS011;36542;51.700;8.846;2022-11-20T07:17:43;19.23;;;11.57;;
50585;SDS011;36542;51.700;8.846;2022-11-20T07:20:09;22.43;;;12.27;;
50585;SDS011;36542;51.700;8.846;2022-11-20T07:22:35;21.33;;;11.63;;
50585;SDS011;36542;51.700;8.846;2022-11-20T07:25:01;18.93;;;11.53;;
50585;SDS011;36542;51.700;8.846;2022-11-20T07:27:27;20.37;;;10.97;;
50585;SDS011;36542;51.700;8.846;2022-11-20T07:29:52;19.90;;;10.73;;
50585;SDS011;36542;51.700;8.846;2022-11-20T07:32:18;17.67;;;9.97;;
50585;SDS011;36542;51.700;8.846;2022-11-20T07:34:44;22.47;;;12.07;;
50585;SDS011;36542;51.700;8.846;2022-11-20T07:37:09;20.27;;;11.00;;
50585;SDS011;36542;51.700;8.846;2022-11-20T07:39:35;22.20;;;13.17;;
50585;SDS011;36542;51.700;8.846;2022-11-20T07:42:00;23.27;;;13.40;;
50585;SDS011;36542;51.700;8.846;2022-11-20T07:44:26;20.73;;;12.43;;
50585;SDS011;36542;51.700;8.846;2022-11-20T07:46:51;21.37;;;11.60;;
50585;SDS011;36542;51.700;8.846;2022-11-20T07:49:17;26.17;;;16.53;;
50585;SDS011;36542;51.700;8.846;2022-11-20T07:51:42;28.90;;;16.33;;
50585;SDS011;36542;51.700;8.846;2022-11-20T07:54:08;25.57;;;15.60;;
50585;SDS011;36542;51.700;8.846;2022-11-20T07:56:33;23.50;;;14.77;;
50585;SDS011;36542;51.700;8.846;2022-11-20T07:58:59;21.00;;;12.87;;
50585;SDS011;36542;51.700;8.846;2022-11-20T08:01:25;24.63;;;15.17;;
50585;SDS011;36542;51.700;8.846;2022-11-20T08:03:50;30.77;;;19.03;;
50585;SDS011;36542;51.700;8.846;2022-11-20T08:06:16;20.47;;;13.90;;
50585;SDS011;36542;51.700;8.846;2022-11-20T08:08:42;20.23;;;14.17;;
50585;SDS011;36542;51.700;8.846;2022-11-20T08:11:08;25.37;;;16.23;;
50585;SDS011;36542;51.700;8.846;2022-11-20T08:13:52;20.30;;;14.57;;
50585;SDS011;36542;51.700;8.846;2022-11-20T08:16:35;23.03;;;12.77;;
50585;SDS011;36542;51.700;8.846;2022-11-20T08:19:01;16.83;;;11.33;;
50585;SDS011;36542;51.700;8.846;2022-11-20T08:21:26;20.50;;;12.63;;
50585;SDS011;36542;51.700;8.846;2022-11-20T08:23:52;20.90;;;12.73;;
50585;SDS011;36542;51.700;8.846;2022-11-20T08:26:18;23.40;;;13.30;;
50585;SDS011;36542;51.700;8.846;2022-11-20T08:28:43;26.87;;;14.57;;
50585;SDS011;36542;51.700;8.846;2022-11-20T08:31:09;21.93;;;12.93;;
50585;SDS011;36542;51.700;8.846;2022-11-20T08:33:35;19.67;;;12.77;;
50585;SDS011;36542;51.700;8.846;2022-11-20T08:36:01;23.87;;;14.13;;
50585;SDS011;36542;51.700;8.846;2022-11-20T08:38:27;26.57;;;16.23;;
50585;SDS011;36542;51.700;8.846;2022-11-20T08:41:00;27.40;;;16.60;;
50585;SDS011;36542;51.700;8.846;2022-11-20T08:43:45;19.47;;;12.90;;
50585;SDS011;36542;51.700;8.846;2022-11-20T08:46:11;21.60;;;13.20;;
50585;SDS011;36542;51.700;8.846;2022-11-20T08:48:37;20.03;;;13.30;;
50585;SDS011;36542;51.700;8.846;2022-11-20T08:51:02;22.23;;;13.40;;
50585;SDS011;36542;51.700;8.846;2022-11-20T08:53:28;26.40;;;17.40;;
50585;SDS011;36542;51.700;8.846;2022-11-20T08:55:54;22.00;;;13.77;;
50585;SDS011;36542;51.700;8.846;2022-11-20T08:58:21;20.70;;;13.30;;
50585;SDS011;36542;51.700;8.846;2022-11-20T09:00:46;21.80;;;12.53;;
50585;SDS011;36542;51.700;8.846;2022-11-20T09:03:12;23.17;;;13.53;;
50585;SDS011;36542;51.700;8.846;2022-11-20T09:05:38;25.10;;;15.37;;
50585;SDS011;36542;51.700;8.846;2022-11-20T09:08:03;23.67;;;15.17;;
50585;SDS011;36542;51.700;8.846;2022-11-20T09:10:29;22.13;;;14.27;;
50585;SDS011;36542;51.700;8.846;2022-11-20T09:12:55;20.90;;;12.50;;
50585;SDS011;36542;51.700;8.846;2022-11-20T09:15:21;20.30;;;10.43;;
50585;SDS011;36542;51.700;8.846;2022-11-20T09:17:51;21.93;;;10.73;;
50585;SDS011;36542;51.700;8.846;2022-11-20T09:20:18;17.00;;;10.37;;
50585;SDS011;36542;51.700;8.846;2022-11-20T09:22:44;20.93;;;11.20;;
50585;SDS011;36542;51.700;8.846;2022-11-20T09:25:09;20.27;;;9.73;;
50585;SDS011;36542;51.700;8.846;2022-11-20T09:27:35;20.23;;;11.17;;
50585;SDS011;36542;51.700;8.846;2022-11-20T09:30:00;22.90;;;12.23;;
50585;SDS011;36542;51.700;8.846;2022-11-20T09:32:27;21.37;;;12.07;;
50585;SDS011;36542;51.700;8.846;2022-11-20T09:34:52;25.80;;;12.87;;
50585;SDS011;36542;51.700;8.846;2022-11-20T09:37:18;46.50;;;19.40;;
50585;SDS011;36542;51.700;8.846;2022-11-20T09:39:43;21.80;;;12.50;;
50585;SDS011;36542;51.700;8.846;2022-11-20T09:42:14;24.73;;;14.57;;
50585;SDS011;36542;51.700;8.846;2022-11-20T09:44:49;22.17;;;12.87;;
50585;SDS011;36542;51.700;8.846;2022-11-20T09:50:23;21.27;;;10.60;;
50585;SDS011;36542;51.700;8.846;2022-11-20T09:55:32;22.13;;;13.70;;
50585;SDS011;36542;51.700;8.846;2022-11-20T09:58:00;19.17;;;11.33;;
50585;SDS011;36542;51.700;8.846;2022-11-20T10:00:26;17.03;;;10.73;;
50585;SDS011;36542;51.700;8.846;2022-11-20T10:02:59;20.33;;;12.03;;
50585;SDS011;36542;51.700;8.846;2022-11-20T10:05:52;13.80;;;9.10;;
50585;SDS011;36542;51.700;8.846;2022-11-20T10:08:21;13.93;;;8.53;;
50585;SDS011;36542;51.700;8.846;2022-11-20T10:10:51;14.97;;;9.50;;
50585;SDS011;36542;51.700;8.846;2022-11-20T10:13:27;24.33;;;13.83;;
50585;SDS011;36542;51.700;8.846;2022-11-20T10:26:42;13.47;;;9.07;;
50585;SDS011;36542;51.700;8.846;2022-11-20T10:29:29;14.17;;;10.33;;
50585;SDS011;36542;51.700;8.846;2022-11-20T10:32:19;11.80;;;8.33;;
50585;SDS011;36542;51.700;8.846;2022-11-20T10:37:40;12.83;;;9.77;;
50585;SDS011;36542;51.700;8.846;2022-11-20T10:40:23;12.13;;;9.20;;
50585;SDS011;36542;51.700;8.846;2022-11-20T10:42:52;15.40;;;11.47;;
50585;SDS011;36542;51.700;8.846;2022-11-20T10:47:53;15.63;;;10.33;;
50585;SDS011;36542;51.700;8.846;2022-11-20T10:50:24;13.70;;;9.53;;
50585;SDS011;36542;51.700;8.846;2022-11-20T10:58:27;13.67;;;8.50;;
50585;SDS011;36542;51.700;8.846;2022-11-20T11:01:05;13.93;;;9.00;;
50585;SDS011;36542;51.700;8.846;2022-11-20T11:03:42;13.03;;;8.50;;
50585;SDS011;36542;51.700;8.846;2022-11-20T11:09:12;12.63;;;9.07;;
50585;SDS011;36542;51.700;8.846;2022-11-20T11:11:44;15.17;;;10.57;;
50585;SDS011;36542;51.700;8.846;2022-11-20T11:14:12;13.77;;;9.57;;
50585;SDS011;36542;51.700;8.846;2022-11-20T11:19:44;16.70;;;10.73;;
50585;SDS011;36542;51.700;8.846;2022-11-20T11:22:10;19.07;;;11.50;;
50585;SDS011;36542;51.700;8.846;2022-11-20T11:24:51;16.17;;;10.40;;
50585;SDS011;36542;51.700;8.846;2022-11-20T11:27:17;19.50;;;11.37;;
50585;SDS011;36542;51.700;8.846;2022-11-20T11:29:43;18.13;;;10.70;;
50585;SDS011;36542;51.700;8.846;2022-11-20T11:32:18;20.47;;;13.40;;
50585;SDS011;36542;51.700;8.846;2022-11-20T11:35:04;22.03;;;13.27;;
50585;SDS011;36542;51.700;8.846;2022-11-20T11:37:35;19.37;;;12.13;;
50585;SDS011;36542;51.700;8.846;2022-11-20T11:40:03;23.80;;;14.37;;
50585;SDS011;36542;51.700;8.846;2022-11-20T11:42:31;25.87;;;14.63;;
50585;SDS011;36542;51.700;8.846;2022-11-20T11:44:58;21.13;;;13.70;;
50585;SDS011;36542;51.700;8.846;2022-11-20T11:55:05;22.37;;;12.87;;
50585;SDS011;36542;51.700;8.846;2022-11-20T11:58:09;20.77;;;13.57;;
50585;SDS011;36542;51.700;8.846;2022-11-20T12:00:33;23.47;;;15.27;;
50585;SDS011;36542;51.700;8.846;2022-11-20T12:03:08;20.30;;;13.67;;
50585;SDS011;36542;51.700;8.846;2022-11-20T12:05:49;18.90;;;12.40;;
50585;SDS011;36542;51.700;8.846;2022-11-20T12:08:31;21.87;;;13.20;;
50585;SDS011;36542;51.700;8.846;2022-11-20T12:16:29;24.30;;;13.67;;
50585;SDS011;36542;51.700;8.846;2022-11-20T12:18:59;19.33;;;13.53;;
50585;SDS011;36542;51.700;8.846;2022-11-20T12:21:34;23.63;;;14.37;;
50585;SDS011;36542;51.700;8.846;2022-11-20T12:44:19;22.07;;;13.70;;
50585;SDS011;36542;51.700;8.846;2022-11-20T12:50:17;21.00;;;13.73;;
50585;SDS011;36542;51.700;8.846;2022-11-20T12:58:49;21.00;;;12.60;;
50585;SDS011;36542;51.700;8.846;2022-11-20T13:07:02;15.93;;;10.70;;
50585;SDS011;36542;51.700;8.846;2022-11-20T13:09:30;20.07;;;12.13;;
50585;SDS011;36542;51.700;8.846;2022-11-20T13:15:02;15.77;;;11.03;;
50585;SDS011;36542;51.700;8.846;2022-11-20T13:17:41;16.67;;;10.83;;
50585;SDS011;36542;51.700;8.846;2022-11-20T13:20:28;16.70;;;10.93;;
50585;SDS011;36542;51.700;8.846;2022-11-20T13:22:55;19.97;;;13.30;;
50585;SDS011;36542;51.700;8.846;2022-11-20T13:25:25;21.03;;;12.00;;
50585;SDS011;36542;51.700;8.846;2022-11-20T13:27:53;15.40;;;11.17;;
50585;SDS011;36542;51.700;8.846;2022-11-20T13:30:21;28.67;;;18.93;;
50585;SDS011;36542;51.700;8.846;2022-11-20T13:32:52;16.83;;;10.60;;
50585;SDS011;36542;51.700;8.846;2022-11-20T13:35:54;17.90;;;13.37;;
50585;SDS011;36542;51.700;8.846;2022-11-20T13:38:19;44.07;;;28.93;;
50585;SDS011;36542;51.700;8.846;2022-11-20T13:40:52;86.93;;;48.07;;
50585;SDS011;36542;51.700;8.846;2022-11-20T13:43:23;54.13;;;32.00;;
50585;SDS011;36542;51.700;8.846;2022-11-20T13:46:06;23.57;;;15.83;;
50585;SDS011;36542;51.700;8.846;2022-11-20T14:00:19;20.17;;;13.47;;
50585;SDS011;36542;51.700;8.846;2022-11-20T14:02:51;18.30;;;10.97;;
50585;SDS011;36542;51.700;8.846;2022-11-20T14:05:38;14.70;;;9.33;;
50585;SDS011;36542;51.700;8.846;2022-11-20T14:08:14;14.07;;;8.87;;
50585;SDS011;36542;51.700;8.846;2022-11-20T14:10:49;14.57;;;9.43;;
50585;SDS011;36542;51.700;8.846;2022-11-20T14:13:18;14.27;;;9.80;;
50585;SDS011;36542;51.700;8.846;2022-11-20T14:15:45;12.80;;;9.13;;
50585;SDS011;36542;51.700;8.846;2022-11-20T14:18:15;12.07;;;8.43;;
50585;SDS011;36542;51.700;8.846;2022-11-20T14:20:45;15.43;;;9.00;;
50585;SDS011;36542;51.700;8.846;2022-11-20T14:23:11;15.57;;;9.83;;
50585;SDS011;36542;51.700;8.846;2022-11-20T14:25:37;13.03;;;9.17;;
50585;SDS011;36542;51.700;8.846;2022-11-20T14:28:10;12.77;;;8.53;;
50585;SDS011;36542;51.700;8.846;2022-11-20T14:30:47;12.00;;;8.57;;
50585;SDS011;36542;51.700;8.846;2022-11-20T14:33:13;14.17;;;8.93;;
50585;SDS011;36542;51.700;8.846;2022-11-20T14:35:46;11.33;;;8.27;;
50585;SDS011;36542;51.700;8.846;2022-11-20T14:38:15;19.17;;;12.17;;
50585;SDS011;36542;51.700;8.846;2022-11-20T14:40:43;20.37;;;13.50;;
50585;SDS011;36542;51.700;8.846;2022-11-20T14:43:16;33.27;;;20.73;;
50585;SDS011;36542;51.700;8.846;2022-11-20T14:45:42;22.67;;;16.37;;
50585;SDS011;36542;51.700;8.846;2022-11-20T14:48:10;19.17;;;13.50;;
50585;SDS011;36542;51.700;8.846;2022-11-20T14:50:37;19.83;;;12.53;;
50585;SDS011;36542;51.700;8.846;2022-11-20T14:53:04;19.00;;;12.57;;
50585;SDS011;36542;51.700;8.846;2022-11-20T14:55:31;19.87;;;12.90;;
50585;SDS011;36542;51.700;8.846;2022-11-20T14:57:59;21.23;;;12.57;;
50585;SDS011;36542;51.700;8.846;2022-11-20T15:00:33;16.30;;;11.43;;
50585;SDS011;36542;51.700;8.846;2022-11-20T15:02:59;18.13;;;12.77;;
50585;SDS011;36542;51.700;8.846;2022-11-20T15:05:43;17.40;;;12.97;;
50585;SDS011;36542;51.700;8.846;2022-11-20T15:08:10;24.27;;;15.33;;
50585;SDS011;36542;51.700;8.846;2022-11-20T15:10:37;51.23;;;27.07;;
50585;SDS011;36542;51.700;8.846;2022-11-20T15:13:13;71.90;;;33.97;;
50585;SDS011;36542;51.700;8.846;2022-11-20T15:15:49;65.00;;;33.10;;
50585;SDS011;36542;51.700;8.846;2022-11-20T15:18:17;66.53;;;34.87;;
50585;SDS011;36542;51.700;8.846;2022-11-20T15:20:47;22.50;;;13.77;;
50585;SDS011;36542;51.700;8.846;2022-11-20T15:23:15;17.77;;;12.13;;
50585;SDS011;36542;51.700;8.846;2022-11-20T15:25:45;17.70;;;10.97;;
50585;SDS011;36542;51.700;8.846;2022-11-20T15:28:16;16.43;;;12.43;;
50585;SDS011;36542;51.700;8.846;2022-11-20T15:30:46;18.63;;;11.90;;
50585;SDS011;36542;51.700;8.846;2022-11-20T15:33:13;17.17;;;11.77;;
50585;SDS011;36542;51.700;8.846;2022-11-20T15:35:39;15.47;;;11.30;;
50585;SDS011;36542;51.700;8.846;2022-11-20T15:38:05;16.47;;;12.30;;
50585;SDS011;36542;51.700;8.846;2022-11-20T15:40:31;34.90;;;19.97;;
50585;SDS011;36542;51.700;8.846;2022-11-20T15:42:56;19.83;;;13.63;;
50585;SDS011;36542;51.700;8.846;2022-11-20T15:45:28;14.60;;;10.37;;
50585;SDS011;36542;51.700;8.846;2022-11-20T15:47:57;24.73;;;14.80;;
50585;SDS011;36542;51.700;8.846;2022-11-20T15:50:23;19.80;;;12.30;;
50585;SDS011;36542;51.700;8.846;2022-11-20T15:52:54;18.07;;;11.27;;
50585;SDS011;36542;51.700;8.846;2022-11-20T15:55:19;16.20;;;10.33;;
50585;SDS011;36542;51.700;8.846;2022-11-20T15:57:45;15.10;;;10.37;;
50585;SDS011;36542;51.700;8.846;2022-11-20T16:00:10;13.30;;;8.87;;
50585;SDS011;36542;51.700;8.846;2022-11-20T16:02:36;14.73;;;9.33;;
50585;SDS011;36542;51.700;8.846;2022-11-20T16:05:02;13.00;;;8.77;;
50585;SDS011;36542;51.700;8.846;2022-11-20T16:07:28;13.13;;;9.13;;
50585;SDS011;36542;51.700;8.846;2022-11-20T16:09:53;14.87;;;9.83;;
50585;SDS011;36542;51.700;8.846;2022-11-20T16:12:21;15.23;;;9.37;;
50585;SDS011;36542;51.700;8.846;2022-11-20T16:15:05;14.27;;;9.50;;